Time;durP1;ratioP1;P1;durP2;ratioP2;P2;SDS_P1;SDS_P2;PMS_P1;PMS_P2;Temp;Humidity;BMP_temperature;BMP_pressure;BME280_temperature;BME280_humidity;BME280_pressure;Samples;Min_cycle;Max_cycle;Signal;HPM_P1;HPM_P2
2021/11/12 00:12:16;;;;;;;0.20;0.00;;;16.70;99.90;;;;;;20505184;29;20225;-76
2021/11/12 00:22:20;;;;;;;0.20;0.00;;;16.70;99.90;;;;;;20504646;29;20204;-75
2021/11/12 00:32:34;;;;;;;0.20;0.10;;;16.60;99.90;;;;;;20501667;28;20212;-76
2021/11/12 00:42:41;;;;;;;0.20;0.00;;;16.90;99.90;;;;;;20502484;29;20236;-77
2021/11/12 01:03:05;;;;;;;0.20;0.10;;;17.00;99.90;;;;;;20512453;23;20311;-74
2021/11/12 01:13:11;;;;;;;0.20;0.10;;;17.00;99.90;;;;;;20499463;28;20248;-74
2021/11/12 01:23:15;;;;;;;0.20;0.00;;;16.80;99.90;;;;;;20501129;28;20193;-73
2021/11/12 01:33:20;;;;;;;0.20;0.00;;;16.80;99.90;;;;;;20490221;28;20227;-73
2021/11/12 01:43:24;;;;;;;0.20;0.10;;;17.00;99.90;;;;;;20499725;28;20231;-74
2021/11/12 01:53:34;;;;;;;0.20;0.00;;;17.00;99.90;;;;;;20489532;28;20790;-74
2021/11/12 02:03:38;;;;;;;0.20;0.10;;;16.80;99.90;;;;;;20411888;23;20312;-76
2021/11/12 02:13:45;;;;;;;0.20;0.10;;;17.10;99.90;;;;;;20284327;29;20226;-75
2021/11/12 02:23:56;;;;;;;0.20;0.10;;;17.10;99.90;;;;;;20269887;29;20616;-74
2021/11/12 02:34:06;;;;;;;0.20;0.10;;;17.30;99.90;;;;;;20313917;29;20315;-75
2021/11/12 02:44:15;;;;;;;0.20;0.10;;;17.30;99.90;;;;;;20248756;29;20268;-77
2021/11/12 02:54:19;;;;;;;0.20;0.10;;;17.40;99.90;;;;;;20261005;29;20566;-76
2021/11/12 03:04:24;;;;;;;0.20;0.10;;;17.40;99.90;;;;;;20302218;29;20241;-75
2021/11/12 03:14:28;;;;;;;0.20;0.10;;;17.40;99.90;;;;;;20394997;29;20225;-75
2021/11/12 03:24:36;;;;;;;0.20;0.07;;;17.40;99.90;;;;;;20416250;29;20224;-75
2021/11/12 05:50:05;;;;;;;0.20;0.07;;;15.60;99.90;;;;;;20562006;28;20299;-72
2021/11/12 06:00:12;;;;;;;0.20;0.00;;;15.60;99.90;;;;;;20562974;28;20235;-73
2021/11/12 06:10:18;;;;;;;0.20;0.00;;;15.80;99.90;;;;;;20579583;28;20287;-74
2021/11/12 06:20:22;;;;;;;0.20;0.10;;;15.80;99.90;;;;;;20578825;28;20322;-74
2021/11/12 06:30:27;;;;;;;0.20;0.10;;;15.90;99.90;;;;;;20577666;28;20201;-74
2021/11/12 06:40:30;;;;;;;0.20;0.00;;;16.10;99.90;;;;;;20560237;28;20271;-75
2021/11/12 06:50:36;;;;;;;0.20;0.00;;;15.90;99.90;;;;;;20542582;28;20611;-73
2021/11/12 07:00:40;;;;;;;0.20;0.10;;;16.20;99.90;;;;;;20555311;28;20323;-76
2021/11/12 07:10:45;;;;;;;0.20;0.00;;;16.40;99.90;;;;;;20551328;28;20303;-73
2021/11/12 07:20:49;;;;;;;0.20;0.10;;;16.30;99.90;;;;;;20573413;28;20228;-73
2021/11/12 07:30:56;;;;;;;0.20;0.00;;;16.20;99.90;;;;;;20574350;28;20232;-73
2021/11/12 07:41:18;;;;;;;0.20;0.10;;;16.10;99.90;;;;;;20572412;28;20238;-74
2021/11/12 07:51:23;;;;;;;0.20;0.10;;;16.00;99.90;;;;;;20571890;28;20204;-74
2021/11/12 08:01:26;;;;;;;0.20;0.00;;;16.10;99.90;;;;;;20537429;28;20229;-74
2021/11/12 08:11:35;;;;;;;0.20;0.00;;;16.00;99.90;;;;;;20416293;28;20686;-73
2021/11/12 08:21:47;;;;;;;0.20;0.10;;;16.10;99.90;;;;;;20429389;29;20248;-73
2021/11/12 08:42:16;;;;;;;0.20;0.10;;;16.00;99.90;;;;;;20425762;29;20678;-76
2021/11/12 08:52:24;;;;;;;0.20;0.00;;;15.80;99.90;;;;;;20480969;28;20225;-72
2021/11/12 09:02:28;;;;;;;0.20;0.00;;;15.70;99.90;;;;;;20447216;29;20244;-74
2021/11/12 09:12:33;;;;;;;0.20;0.10;;;16.00;99.90;;;;;;20422900;29;20239;-74
2021/11/12 09:22:37;;;;;;;0.20;0.10;;;16.30;99.90;;;;;;20423471;29;20205;-74
2021/11/12 09:32:43;;;;;;;0.20;0.00;;;16.50;99.90;;;;;;20499982;29;20232;-77
2021/11/12 09:42:47;;;;;;;0.20;0.20;;;16.40;99.90;;;;;;20501501;29;20550;-77
2021/11/12 09:52:53;;;;;;;0.20;0.10;;;16.30;99.90;;;;;;20469214;29;20264;-77
2021/11/12 10:02:58;;;;;;;0.20;0.10;;;16.70;99.90;;;;;;20461839;29;20233;-76
2021/11/12 10:13:03;;;;;;;0.20;0.00;;;17.00;99.90;;;;;;20443058;29;20256;-76
2021/11/12 10:23:17;;;;;;;0.20;0.10;;;17.10;99.90;;;;;;20418128;29;20284;-74
2021/11/12 10:33:37;;;;;;;0.20;0.00;;;17.20;99.90;;;;;;20421973;28;20307;-75
2021/11/12 10:43:42;;;;;;;0.20;0.07;;;17.80;99.90;;;;;;20404620;29;20193;-75
2021/11/12 10:53:52;;;;;;;0.20;0.10;;;19.10;99.90;;;;;;20495632;29;20300;-77
2021/11/12 11:04:13;;;;;;;0.20;0.00;;;20.10;99.90;;;;;;20494095;29;20579;-76
2021/11/12 11:14:32;;;;;;;0.20;0.10;;;19.90;99.90;;;;;;20495283;29;20224;-76
2021/11/12 11:24:38;;;;;;;0.20;0.10;;;20.90;99.90;;;;;;20493596;29;20197;-75
2021/11/12 11:34:44;;;;;;;0.20;0.00;;;22.00;99.90;;;;;;20493726;29;20741;-75
2021/11/12 11:44:48;;;;;;;0.20;0.00;;;21.90;99.90;;;;;;20458056;29;20206;-73
2021/11/12 11:54:54;;;;;;;0.20;0.10;;;22.10;99.90;;;;;;20491974;29;20777;-75
2021/11/12 12:05:00;;;;;;;0.20;0.00;;;21.70;99.90;;;;;;20511950;29;20221;-74
2021/11/12 12:15:42;;;;;;;0.20;0.00;;;20.30;99.90;;;;;;20556788;29;20225;-76
2021/11/12 13:28:47;;;;;;;0.20;0.00;;;18.50;99.90;;;;;;20440215;29;20189;-75
2021/11/12 13:38:57;;;;;;;0.20;0.10;;;19.10;99.90;;;;;;20456827;29;20226;-73
2021/11/12 13:49:02;;;;;;;0.20;0.00;;;21.40;99.90;;;;;;20477846;29;20269;-75
2021/11/12 13:59:14;;;;;;;0.20;0.00;;;20.20;99.90;;;;;;20498821;29;20224;-77
2021/11/12 14:09:22;;;;;;;0.20;0.10;;;19.90;99.90;;;;;;20490947;28;20271;-73
2021/11/12 14:19:47;;;;;;;0.20;0.00;;;21.30;99.90;;;;;;20446129;29;20316;-77
2021/11/12 14:40:17;;;;;;;0.20;0.00;;;23.40;99.90;;;;;;20432216;29;20332;-74
2021/11/12 14:50:40;;;;;;;0.20;0.00;;;22.50;99.90;;;;;;20471935;29;20215;-78
2021/11/12 15:00:47;;;;;;;0.20;0.00;;;24.30;99.90;;;;;;20432472;29;20962;-76
2021/11/12 15:10:53;;;;;;;0.20;0.00;;;23.10;99.90;;;;;;20405045;29;20288;-76
2021/11/12 15:20:58;;;;;;;0.20;0.10;;;22.20;99.90;;;;;;20376933;29;20225;-77
2021/11/12 15:31:08;;;;;;;0.20;0.00;;;20.80;99.90;;;;;;20347756;29;20585;-74
2021/11/12 15:41:21;;;;;;;0.20;0.10;;;20.90;99.90;;;;;;20349307;29;20259;-75
2021/11/12 15:51:44;;;;;;;0.20;0.00;;;20.80;99.90;;;;;;20417853;29;21153;-78
2021/11/12 16:12:27;;;;;;;0.20;0.10;;;19.90;99.90;;;;;;20467920;28;20205;-76
2021/11/12 16:22:49;;;;;;;0.20;0.10;;;19.60;99.90;;;;;;20437154;29;20242;-75
2021/11/12 16:32:56;;;;;;;0.20;0.10;;;19.40;99.90;;;;;;20422122;29;20209;-77
2021/11/12 16:53:39;;;;;;;0.20;0.10;;;18.70;99.90;;;;;;20468438;29;20671;-76
2021/11/12 17:14:29;;;;;;;0.20;0.10;;;18.40;99.90;;;;;;20415168;29;20229;-76
2021/11/12 17:45:44;;;;;;;0.20;0.10;;;18.30;99.90;;;;;;20448221;28;20221;-76
2021/11/12 18:07:04;;;;;;;0.20;0.10;;;18.90;99.90;;;;;;20625825;23;20382;-75
2021/11/12 21:47:10;;;;;;;0.20;0.10;;;16.30;99.90;;;;;;20383851;29;20708;-76
2021/11/12 21:57:14;;;;;;;0.20;0.10;;;16.20;99.90;;;;;;20326829;29;20234;-73
2021/11/12 22:07:21;;;;;;;0.20;0.10;;;16.40;99.90;;;;;;20389249;29;20222;-75
2021/11/12 22:17:25;;;;;;;0.20;0.10;;;16.60;99.90;;;;;;20349188;29;20222;-75
2021/11/12 22:27:30;;;;;;;0.20;0.10;;;16.60;99.90;;;;;;20401344;29;20221;-78
2021/11/12 22:37:35;;;;;;;0.20;0.10;;;16.40;99.90;;;;;;20451531;29;20275;-78
2021/11/12 22:47:40;;;;;;;0.20;0.10;;;16.30;99.90;;;;;;20496551;29;20201;-75
2021/11/12 22:57:44;;;;;;;0.20;0.17;;;16.20;99.90;;;;;;20428852;29;20368;-75
2021/11/12 23:07:49;;;;;;;0.20;0.10;;;16.40;99.90;;;;;;20492215;28;20683;-74
2021/11/12 23:17:54;;;;;;;0.20;0.10;;;16.40;99.90;;;;;;20492693;28;20678;-74
2021/11/12 23:28:05;;;;;;;0.20;0.10;;;16.00;99.90;;;;;;20492885;29;20192;-74
2021/11/12 23:38:10;;;;;;;0.70;0.70;;;15.90;99.90;;;;;;20494348;28;20224;-74
2021/11/12 23:48:16;;;;;;;0.20;0.00;;;15.60;99.90;;;;;;20502509;28;20257;-74
2021/11/12 23:58:20;;;;;;;0.20;0.10;;;15.60;99.90;;;;;;20459364;29;20230;-75
